Kiroli Woods, Louisiana
Current Conditions -  °F | °C
As of 10:43 AM on Friday 19 Dec 2014 (Local Time) from KMLU Reporting Station
Heavy Rain Heavy Rain  
Wind Chill: 43°   Ceiling: 2900
Heat Index: 47°   Visibility: 2mi
Dew Point: 45°   Wind: 8mph
Humidity: 93%   Direction: 30°NNE
Pressure: 30.23"   Gusts: NA
Location:  32.5473°N, 92.2007°W
Report Text: KMLU 191643Z 03007KT 2SM +RA BR BKN029 OVC041 08/07 A3023 RMK AO2 P0011 T00830072
Loading
Personal Weather Stations






























Interactive Weather Map New forecast layout! Learn more

10-Day Weather Forecast

Advertisements
Track Severe Weather on mobile